sensor_id;sensor_type;location;lat;lon;timestamp;P1;durP1;ratioP1;P2;durP2;ratioP2
60917;SDS011;46792;38.854;-9.384;2024-03-08T10:57:35;15.90;;;2.60;;
60917;SDS011;46792;38.854;-9.384;2024-03-08T10:59:38;12.52;;;2.70;;
60917;SDS011;46792;38.854;-9.384;2024-03-08T11:01:39;18.90;;;2.30;;
60917;SDS011;46792;38.854;-9.384;2024-03-08T11:05:41;25.08;;;3.47;;
60917;SDS011;46792;38.854;-9.384;2024-03-08T11:07:42;10.52;;;2.15;;
60917;SDS011;46792;38.854;-9.384;2024-03-08T11:09:43;16.70;;;2.33;;
60917;SDS011;46792;38.854;-9.384;2024-03-08T11:11:47;14.43;;;2.33;;
60917;SDS011;46792;38.854;-9.384;2024-03-08T11:13:47;7.35;;;2.60;;
60917;SDS011;46792;38.854;-9.384;2024-03-08T11:15:48;3.70;;;1.30;;
60917;SDS011;46792;38.854;-9.384;2024-03-08T11:17:49;18.38;;;2.15;;
60917;SDS011;46792;38.854;-9.384;2024-03-08T11:19:50;6.57;;;2.00;;
60917;SDS011;46792;38.854;-9.384;2024-03-08T11:21:58;8.25;;;1.58;;
60917;SDS011;46792;38.854;-9.384;2024-03-08T11:24:06;12.23;;;1.70;;
60917;SDS011;46792;38.854;-9.384;2024-03-08T11:26:18;7.53;;;1.80;;
60917;SDS011;46792;38.854;-9.384;2024-03-08T11:28:25;10.20;;;2.53;;
60917;SDS011;46792;38.854;-9.384;2024-03-08T11:30:27;10.10;;;1.75;;
60917;SDS011;46792;38.854;-9.384;2024-03-08T11:32:27;8.88;;;2.10;;
60917;SDS011;46792;38.854;-9.384;2024-03-08T11:34:30;12.60;;;1.65;;
60917;SDS011;46792;38.854;-9.384;2024-03-08T11:36:34;12.35;;;2.80;;
60917;SDS011;46792;38.854;-9.384;2024-03-08T11:38:40;4.45;;;1.73;;
60917;SDS011;46792;38.854;-9.384;2024-03-08T11:40:41;13.43;;;1.95;;
60917;SDS011;46792;38.854;-9.384;2024-03-08T11:42:49;5.53;;;1.92;;
60917;SDS011;46792;38.854;-9.384;2024-03-08T11:44:51;10.18;;;1.77;;
60917;SDS011;46792;38.854;-9.384;2024-03-08T11:46:53;6.35;;;1.60;;
60917;SDS011;46792;38.854;-9.384;2024-03-08T11:48:54;8.13;;;1.50;;
60917;SDS011;46792;38.854;-9.384;2024-03-08T11:50:59;6.90;;;1.52;;
60917;SDS011;46792;38.854;-9.384;2024-03-08T11:53:05;11.55;;;6.60;;
60917;SDS011;46792;38.854;-9.384;2024-03-08T11:55:06;13.23;;;2.00;;
60917;SDS011;46792;38.854;-9.384;2024-03-08T11:57:07;4.57;;;1.20;;
60917;SDS011;46792;38.854;-9.384;2024-03-08T11:59:12;9.63;;;1.85;;
60917;SDS011;46792;38.854;-9.384;2024-03-08T12:01:13;9.10;;;1.40;;
60917;SDS011;46792;38.854;-9.384;2024-03-08T12:03:14;4.13;;;1.40;;
60917;SDS011;46792;38.854;-9.384;2024-03-08T12:05:15;10.35;;;2.10;;
60917;SDS011;46792;38.854;-9.384;2024-03-08T12:07:16;8.90;;;1.20;;
60917;SDS011;46792;38.854;-9.384;2024-03-08T12:09:19;10.43;;;1.65;;
60917;SDS011;46792;38.854;-9.384;2024-03-08T12:11:23;5.68;;;1.55;;
60917;SDS011;46792;38.854;-9.384;2024-03-08T12:13:23;3.50;;;1.05;;
60917;SDS011;46792;38.854;-9.384;2024-03-08T12:15:25;9.45;;;1.67;;
60917;SDS011;46792;38.854;-9.384;2024-03-08T12:17:25;11.95;;;2.42;;
60917;SDS011;46792;38.854;-9.384;2024-03-08T12:19:27;10.25;;;2.80;;
60917;SDS011;46792;38.854;-9.384;2024-03-08T12:21:30;19.67;;;4.03;;
60917;SDS011;46792;38.854;-9.384;2024-03-08T12:23:35;16.70;;;3.63;;
60917;SDS011;46792;38.854;-9.384;2024-03-08T12:25:37;14.00;;;2.40;;
60917;SDS011;46792;38.854;-9.384;2024-03-08T12:27:39;9.75;;;2.38;;
60917;SDS011;46792;38.854;-9.384;2024-03-08T12:29:41;17.00;;;3.38;;
60917;SDS011;46792;38.854;-9.384;2024-03-08T12:31:42;14.25;;;2.55;;
60917;SDS011;46792;38.854;-9.384;2024-03-08T12:35:51;10.02;;;2.28;;
60917;SDS011;46792;38.854;-9.384;2024-03-08T12:37:56;11.25;;;1.80;;
60917;SDS011;46792;38.854;-9.384;2024-03-08T12:39:58;9.90;;;2.00;;
60917;SDS011;46792;38.854;-9.384;2024-03-08T12:41:58;8.27;;;1.90;;
60917;SDS011;46792;38.854;-9.384;2024-03-08T12:44:02;15.23;;;2.30;;
60917;SDS011;46792;38.854;-9.384;2024-03-08T12:46:04;9.02;;;1.83;;
60917;SDS011;46792;38.854;-9.384;2024-03-08T12:48:11;13.93;;;1.98;;
60917;SDS011;46792;38.854;-9.384;2024-03-08T12:50:14;11.98;;;2.00;;
60917;SDS011;46792;38.854;-9.384;2024-03-08T12:52:17;12.30;;;2.60;;
60917;SDS011;46792;38.854;-9.384;2024-03-08T12:54:19;19.77;;;2.63;;
60917;SDS011;46792;38.854;-9.384;2024-03-08T12:58:31;11.57;;;1.90;;
60917;SDS011;46792;38.854;-9.384;2024-03-08T13:00:31;11.38;;;2.03;;
60917;SDS011;46792;38.854;-9.384;2024-03-08T13:02:32;7.07;;;1.60;;
60917;SDS011;46792;38.854;-9.384;2024-03-08T13:04:33;12.20;;;1.70;;
60917;SDS011;46792;38.854;-9.384;2024-03-08T13:06:33;11.43;;;2.53;;
60917;SDS011;46792;38.854;-9.384;2024-03-08T13:08:35;12.57;;;1.65;;
60917;SDS011;46792;38.854;-9.384;2024-03-08T13:10:39;13.82;;;2.50;;
60917;SDS011;46792;38.854;-9.384;2024-03-08T13:12:43;16.35;;;2.08;;
60917;SDS011;46792;38.854;-9.384;2024-03-08T13:14:47;9.32;;;1.85;;
60917;SDS011;46792;38.854;-9.384;2024-03-08T13:16:48;18.05;;;2.10;;
60917;SDS011;46792;38.854;-9.384;2024-03-08T13:18:48;14.23;;;2.30;;
60917;SDS011;46792;38.854;-9.384;2024-03-08T13:20:49;10.52;;;1.98;;
60917;SDS011;46792;38.854;-9.384;2024-03-08T13:22:52;8.77;;;2.83;;
60917;SDS011;46792;38.854;-9.384;2024-03-08T13:24:52;8.20;;;1.85;;
60917;SDS011;46792;38.854;-9.384;2024-03-08T13:26:53;9.55;;;1.88;;
60917;SDS011;46792;38.854;-9.384;2024-03-08T13:28:54;12.15;;;1.70;;
60917;SDS011;46792;38.854;-9.384;2024-03-08T13:30:56;16.85;;;1.65;;
60917;SDS011;46792;38.854;-9.384;2024-03-08T13:33:01;9.77;;;1.70;;
60917;SDS011;46792;38.854;-9.384;2024-03-08T13:35:04;10.02;;;1.75;;
60917;SDS011;46792;38.854;-9.384;2024-03-08T13:37:12;9.40;;;2.10;;
60917;SDS011;46792;38.854;-9.384;2024-03-08T13:39:16;6.15;;;1.67;;
60917;SDS011;46792;38.854;-9.384;2024-03-08T13:41:16;14.00;;;1.60;;
60917;SDS011;46792;38.854;-9.384;2024-03-08T13:43:22;22.90;;;3.42;;
60917;SDS011;46792;38.854;-9.384;2024-03-08T13:45:22;9.77;;;2.22;;
60917;SDS011;46792;38.854;-9.384;2024-03-08T13:47:24;20.88;;;13.38;;
60917;SDS011;46792;38.854;-9.384;2024-03-08T13:49:24;10.32;;;1.88;;
60917;SDS011;46792;38.854;-9.384;2024-03-08T13:51:26;7.70;;;1.83;;
60917;SDS011;46792;38.854;-9.384;2024-03-08T13:53:27;14.18;;;2.45;;
60917;SDS011;46792;38.854;-9.384;2024-03-08T13:55:27;8.25;;;1.90;;
60917;SDS011;46792;38.854;-9.384;2024-03-08T13:57:28;4.82;;;1.55;;
60917;SDS011;46792;38.854;-9.384;2024-03-08T13:59:29;13.27;;;1.80;;
60917;SDS011;46792;38.854;-9.384;2024-03-08T14:01:33;11.90;;;1.77;;
60917;SDS011;46792;38.854;-9.384;2024-03-08T14:03:36;19.42;;;1.92;;
60917;SDS011;46792;38.854;-9.384;2024-03-08T14:05:39;8.85;;;2.17;;
60917;SDS011;46792;38.854;-9.384;2024-03-08T14:07:41;7.55;;;1.55;;
60917;SDS011;46792;38.854;-9.384;2024-03-08T14:09:42;5.85;;;1.20;;
60917;SDS011;46792;38.854;-9.384;2024-03-08T14:11:43;13.52;;;2.40;;
60917;SDS011;46792;38.854;-9.384;2024-03-08T14:13:47;12.75;;;1.85;;
60917;SDS011;46792;38.854;-9.384;2024-03-08T14:15:48;8.90;;;1.85;;
60917;SDS011;46792;38.854;-9.384;2024-03-08T14:17:55;5.97;;;1.70;;
60917;SDS011;46792;38.854;-9.384;2024-03-08T14:19:56;10.13;;;2.22;;
60917;SDS011;46792;38.854;-9.384;2024-03-08T14:21:56;9.30;;;1.80;;
60917;SDS011;46792;38.854;-9.384;2024-03-08T14:23:59;11.65;;;1.85;;
60917;SDS011;46792;38.854;-9.384;2024-03-08T14:26:01;18.75;;;3.88;;
60917;SDS011;46792;38.854;-9.384;2024-03-08T14:28:04;7.15;;;1.60;;
60917;SDS011;46792;38.854;-9.384;2024-03-08T14:30:07;7.72;;;1.95;;
60917;SDS011;46792;38.854;-9.384;2024-03-08T14:32:10;18.15;;;2.47;;
60917;SDS011;46792;38.854;-9.384;2024-03-08T14:34:13;10.75;;;1.60;;
60917;SDS011;46792;38.854;-9.384;2024-03-08T14:36:15;11.90;;;1.73;;
60917;SDS011;46792;38.854;-9.384;2024-03-08T14:38:19;7.13;;;1.63;;
60917;SDS011;46792;38.854;-9.384;2024-03-08T14:40:20;22.17;;;3.15;;
60917;SDS011;46792;38.854;-9.384;2024-03-08T14:42:22;19.38;;;2.42;;
60917;SDS011;46792;38.854;-9.384;2024-03-08T14:44:23;19.20;;;2.20;;
60917;SDS011;46792;38.854;-9.384;2024-03-08T14:46:26;21.52;;;3.05;;
60917;SDS011;46792;38.854;-9.384;2024-03-08T14:48:26;14.02;;;2.03;;
60917;SDS011;46792;38.854;-9.384;2024-03-08T14:50:27;7.03;;;2.13;;
60917;SDS011;46792;38.854;-9.384;2024-03-08T14:52:28;15.18;;;3.28;;
60917;SDS011;46792;38.854;-9.384;2024-03-08T14:54:28;20.27;;;2.78;;
60917;SDS011;46792;38.854;-9.384;2024-03-08T14:56:29;10.38;;;1.88;;
60917;SDS011;46792;38.854;-9.384;2024-03-08T14:58:31;10.85;;;2.10;;
60917;SDS011;46792;38.854;-9.384;2024-03-08T15:00:32;14.57;;;1.95;;
60917;SDS011;46792;38.854;-9.384;2024-03-08T15:02:39;16.55;;;2.97;;
60917;SDS011;46792;38.854;-9.384;2024-03-08T15:04:39;20.00;;;2.50;;
60917;SDS011;46792;38.854;-9.384;2024-03-08T15:06:41;7.90;;;2.38;;
60917;SDS011;46792;38.854;-9.384;2024-03-08T15:08:51;11.27;;;1.65;;
60917;SDS011;46792;38.854;-9.384;2024-03-08T15:10:52;9.35;;;2.25;;
60917;SDS011;46792;38.854;-9.384;2024-03-08T15:12:55;16.55;;;3.67;;
60917;SDS011;46792;38.854;-9.384;2024-03-08T15:14:58;14.50;;;2.22;;
60917;SDS011;46792;38.854;-9.384;2024-03-08T15:16:59;18.73;;;2.67;;
60917;SDS011;46792;38.854;-9.384;2024-03-08T15:19:01;13.82;;;3.00;;
60917;SDS011;46792;38.854;-9.384;2024-03-08T15:21:03;8.23;;;1.83;;
60917;SDS011;46792;38.854;-9.384;2024-03-08T15:23:08;22.27;;;2.47;;
60917;SDS011;46792;38.854;-9.384;2024-03-08T15:25:10;13.38;;;2.30;;
60917;SDS011;46792;38.854;-9.384;2024-03-08T15:27:17;12.10;;;2.33;;
60917;SDS011;46792;38.854;-9.384;2024-03-08T15:29:17;21.85;;;4.43;;
60917;SDS011;46792;38.854;-9.384;2024-03-08T15:31:26;22.30;;;2.67;;
60917;SDS011;46792;38.854;-9.384;2024-03-08T15:33:27;15.73;;;3.28;;
60917;SDS011;46792;38.854;-9.384;2024-03-08T15:35:29;16.45;;;2.35;;
60917;SDS011;46792;38.854;-9.384;2024-03-08T15:37:32;11.88;;;2.13;;
60917;SDS011;46792;38.854;-9.384;2024-03-08T15:39:34;12.13;;;3.03;;
60917;SDS011;46792;38.854;-9.384;2024-03-08T15:41:34;17.88;;;2.60;;
60917;SDS011;46792;38.854;-9.384;2024-03-08T15:43:36;16.63;;;2.63;;
60917;SDS011;46792;38.854;-9.384;2024-03-08T15:45:37;8.25;;;2.38;;
60917;SDS011;46792;38.854;-9.384;2024-03-08T15:47:37;14.70;;;2.35;;
60917;SDS011;46792;38.854;-9.384;2024-03-08T15:49:38;12.60;;;2.08;;
60917;SDS011;46792;38.854;-9.384;2024-03-08T15:51:39;15.02;;;1.95;;
60917;SDS011;46792;38.854;-9.384;2024-03-08T15:53:41;12.38;;;2.88;;
60917;SDS011;46792;38.854;-9.384;2024-03-08T15:55:41;17.17;;;2.38;;
60917;SDS011;46792;38.854;-9.384;2024-03-08T15:57:47;9.07;;;2.28;;
60917;SDS011;46792;38.854;-9.384;2024-03-08T15:59:48;15.50;;;2.45;;
60917;SDS011;46792;38.854;-9.384;2024-03-08T16:01:48;25.90;;;2.75;;
60917;SDS011;46792;38.854;-9.384;2024-03-08T16:03:51;16.15;;;2.08;;
60917;SDS011;46792;38.854;-9.384;2024-03-08T16:05:51;13.90;;;2.38;;
60917;SDS011;46792;38.854;-9.384;2024-03-08T16:07:54;28.23;;;3.50;;
60917;SDS011;46792;38.854;-9.384;2024-03-08T16:09:55;13.85;;;2.60;;
60917;SDS011;46792;38.854;-9.384;2024-03-08T16:11:56;14.15;;;2.25;;
60917;SDS011;46792;38.854;-9.384;2024-03-08T16:13:58;17.50;;;2.55;;
60917;SDS011;46792;38.854;-9.384;2024-03-08T16:16:00;23.10;;;2.90;;
60917;SDS011;46792;38.854;-9.384;2024-03-08T16:18:03;14.55;;;2.47;;
60917;SDS011;46792;38.854;-9.384;2024-03-08T16:20:05;21.02;;;3.40;;
60917;SDS011;46792;38.854;-9.384;2024-03-08T16:22:11;15.48;;;2.85;;
60917;SDS011;46792;38.854;-9.384;2024-03-08T16:24:12;12.45;;;3.10;;
60917;SDS011;46792;38.854;-9.384;2024-03-08T16:26:12;19.92;;;2.25;;
60917;SDS011;46792;38.854;-9.384;2024-03-08T16:28:13;4.60;;;1.95;;
60917;SDS011;46792;38.854;-9.384;2024-03-08T16:30:14;6.10;;;1.27;;
60917;SDS011;46792;38.854;-9.384;2024-03-08T16:32:17;6.35;;;1.55;;
60917;SDS011;46792;38.854;-9.384;2024-03-08T16:34:20;10.02;;;1.73;;
60917;SDS011;46792;38.854;-9.384;2024-03-08T16:36:21;11.35;;;2.10;;
60917;SDS011;46792;38.854;-9.384;2024-03-08T16:38:22;10.95;;;3.08;;
60917;SDS011;46792;38.854;-9.384;2024-03-08T16:40:23;14.50;;;2.20;;
60917;SDS011;46792;38.854;-9.384;2024-03-08T16:42:24;16.42;;;2.70;;
60917;SDS011;46792;38.854;-9.384;2024-03-08T16:44:25;17.88;;;2.13;;
60917;SDS011;46792;38.854;-9.384;2024-03-08T16:46:27;19.10;;;2.75;;
60917;SDS011;46792;38.854;-9.384;2024-03-08T16:48:27;17.75;;;2.90;;
60917;SDS011;46792;38.854;-9.384;2024-03-08T16:50:30;16.02;;;2.25;;
60917;SDS011;46792;38.854;-9.384;2024-03-08T16:52:37;18.83;;;2.97;;
60917;SDS011;46792;38.854;-9.384;2024-03-08T16:54:37;15.40;;;2.35;;
60917;SDS011;46792;38.854;-9.384;2024-03-08T16:56:38;23.63;;;3.03;;
60917;SDS011;46792;38.854;-9.384;2024-03-08T16:58:39;17.42;;;2.80;;
60917;SDS011;46792;38.854;-9.384;2024-03-08T17:00:43;11.53;;;3.27;;
60917;SDS011;46792;38.854;-9.384;2024-03-08T17:02:47;13.38;;;2.97;;
60917;SDS011;46792;38.854;-9.384;2024-03-08T17:04:52;21.30;;;3.03;;
60917;SDS011;46792;38.854;-9.384;2024-03-08T17:06:52;6.43;;;2.20;;
60917;SDS011;46792;38.854;-9.384;2024-03-08T17:08:59;16.98;;;2.88;;
60917;SDS011;46792;38.854;-9.384;2024-03-08T17:10:59;18.10;;;2.67;;
60917;SDS011;46792;38.854;-9.384;2024-03-08T17:13:00;19.08;;;2.65;;
60917;SDS011;46792;38.854;-9.384;2024-03-08T17:15:02;13.30;;;2.38;;
60917;SDS011;46792;38.854;-9.384;2024-03-08T17:17:03;22.05;;;4.68;;
60917;SDS011;46792;38.854;-9.384;2024-03-08T17:19:05;12.35;;;2.15;;
60917;SDS011;46792;38.854;-9.384;2024-03-08T17:21:06;14.77;;;2.85;;
60917;SDS011;46792;38.854;-9.384;2024-03-08T17:23:13;16.10;;;2.75;;
60917;SDS011;46792;38.854;-9.384;2024-03-08T17:25:15;11.95;;;2.42;;
60917;SDS011;46792;38.854;-9.384;2024-03-08T17:27:20;15.15;;;2.80;;
60917;SDS011;46792;38.854;-9.384;2024-03-08T17:29:24;11.85;;;2.50;;
60917;SDS011;46792;38.854;-9.384;2024-03-08T17:31:25;10.88;;;2.38;;
60917;SDS011;46792;38.854;-9.384;2024-03-08T17:33:27;9.07;;;1.83;;
60917;SDS011;46792;38.854;-9.384;2024-03-08T17:35:35;16.50;;;2.00;;
60917;SDS011;46792;38.854;-9.384;2024-03-08T17:37:38;10.35;;;3.20;;
60917;SDS011;46792;38.854;-9.384;2024-03-08T17:39:39;8.75;;;2.13;;
60917;SDS011;46792;38.854;-9.384;2024-03-08T17:41:40;17.38;;;2.22;;
60917;SDS011;46792;38.854;-9.384;2024-03-08T17:43:41;16.48;;;2.75;;
60917;SDS011;46792;38.854;-9.384;2024-03-08T17:45:42;20.70;;;3.88;;
60917;SDS011;46792;38.854;-9.384;2024-03-08T17:47:47;28.77;;;4.18;;
60917;SDS011;46792;38.854;-9.384;2024-03-08T17:49:48;14.00;;;3.85;;
60917;SDS011;46792;38.854;-9.384;2024-03-08T17:51:50;19.13;;;3.97;;
60917;SDS011;46792;38.854;-9.384;2024-03-08T17:53:52;23.05;;;3.83;;
60917;SDS011;46792;38.854;-9.384;2024-03-08T17:55:53;36.33;;;5.18;;
60917;SDS011;46792;38.854;-9.384;2024-03-08T17:57:54;40.33;;;5.53;;
60917;SDS011;46792;38.854;-9.384;2024-03-08T17:59:55;43.60;;;5.32;;
60917;SDS011;46792;38.854;-9.384;2024-03-08T18:01:56;31.77;;;5.45;;
60917;SDS011;46792;38.854;-9.384;2024-03-08T18:03:57;29.50;;;5.75;;
60917;SDS011;46792;38.854;-9.384;2024-03-08T18:06:00;38.28;;;5.32;;
60917;SDS011;46792;38.854;-9.384;2024-03-08T18:08:04;30.08;;;5.38;;
60917;SDS011;46792;38.854;-9.384;2024-03-08T18:10:05;29.02;;;4.75;;
60917;SDS011;46792;38.854;-9.384;2024-03-08T18:12:07;37.13;;;6.88;;
60917;SDS011;46792;38.854;-9.384;2024-03-08T18:14:08;52.67;;;6.10;;
60917;SDS011;46792;38.854;-9.384;2024-03-08T18:16:13;52.53;;;6.18;;
60917;SDS011;46792;38.854;-9.384;2024-03-08T18:18:15;31.42;;;5.50;;
60917;SDS011;46792;38.854;-9.384;2024-03-08T18:20:20;36.72;;;5.40;;
60917;SDS011;46792;38.854;-9.384;2024-03-08T18:22:28;35.22;;;5.93;;
60917;SDS011;46792;38.854;-9.384;2024-03-08T18:24:28;45.17;;;6.13;;
60917;SDS011;46792;38.854;-9.384;2024-03-08T18:26:30;40.20;;;5.57;;
60917;SDS011;46792;38.854;-9.384;2024-03-08T18:28:34;37.63;;;6.70;;
60917;SDS011;46792;38.854;-9.384;2024-03-08T18:30:36;40.95;;;6.10;;
60917;SDS011;46792;38.854;-9.384;2024-03-08T18:32:37;39.78;;;6.55;;
60917;SDS011;46792;38.854;-9.384;2024-03-08T18:34:38;41.75;;;7.13;;
60917;SDS011;46792;38.854;-9.384;2024-03-08T18:36:43;55.33;;;8.88;;
60917;SDS011;46792;38.854;-9.384;2024-03-08T18:38:47;34.13;;;6.82;;
60917;SDS011;46792;38.854;-9.384;2024-03-08T18:40:49;49.40;;;6.60;;
60917;SDS011;46792;38.854;-9.384;2024-03-08T18:42:50;37.35;;;6.20;;
60917;SDS011;46792;38.854;-9.384;2024-03-08T18:44:51;43.78;;;6.65;;
60917;SDS011;46792;38.854;-9.384;2024-03-08T18:46:52;54.70;;;8.55;;
60917;SDS011;46792;38.854;-9.384;2024-03-08T18:48:56;41.47;;;7.88;;
60917;SDS011;46792;38.854;-9.384;2024-03-08T18:50:57;37.53;;;6.88;;
60917;SDS011;46792;38.854;-9.384;2024-03-08T18:52:59;35.22;;;6.72;;
60917;SDS011;46792;38.854;-9.384;2024-03-08T18:55:00;55.25;;;8.13;;
60917;SDS011;46792;38.854;-9.384;2024-03-08T18:57:01;45.25;;;7.57;;
60917;SDS011;46792;38.854;-9.384;2024-03-08T18:59:05;55.47;;;7.95;;
60917;SDS011;46792;38.854;-9.384;2024-03-08T19:01:09;47.53;;;7.75;;
60917;SDS011;46792;38.854;-9.384;2024-03-08T19:03:10;49.80;;;6.93;;
60917;SDS011;46792;38.854;-9.384;2024-03-08T19:05:11;39.30;;;5.90;;
60917;SDS011;46792;38.854;-9.384;2024-03-08T19:07:16;39.17;;;6.85;;
60917;SDS011;46792;38.854;-9.384;2024-03-08T19:09:20;55.30;;;9.57;;
60917;SDS011;46792;38.854;-9.384;2024-03-08T19:11:21;55.47;;;7.45;;
60917;SDS011;46792;38.854;-9.384;2024-03-08T19:13:22;36.60;;;6.15;;
60917;SDS011;46792;38.854;-9.384;2024-03-08T19:15:23;38.00;;;6.10;;
60917;SDS011;46792;38.854;-9.384;2024-03-08T19:17:25;40.15;;;5.43;;
60917;SDS011;46792;38.854;-9.384;2024-03-08T19:19:26;51.97;;;7.95;;
60917;SDS011;46792;38.854;-9.384;2024-03-08T19:21:27;37.63;;;7.05;;
60917;SDS011;46792;38.854;-9.384;2024-03-08T19:23:28;46.35;;;5.53;;
60917;SDS011;46792;38.854;-9.384;2024-03-08T19:25:32;39.00;;;6.20;;
60917;SDS011;46792;38.854;-9.384;2024-03-08T19:27:33;36.30;;;6.03;;
60917;SDS011;46792;38.854;-9.384;2024-03-08T19:29:36;43.83;;;6.30;;
60917;SDS011;46792;38.854;-9.384;2024-03-08T19:31:37;29.23;;;5.85;;
60917;SDS011;46792;38.854;-9.384;2024-03-08T19:33:38;43.17;;;4.97;;
60917;SDS011;46792;38.854;-9.384;2024-03-08T19:35:40;33.08;;;5.57;;
60917;SDS011;46792;38.854;-9.384;2024-03-08T19:37:41;32.75;;;5.30;;
60917;SDS011;46792;38.854;-9.384;2024-03-08T19:39:47;39.10;;;6.75;;
60917;SDS011;46792;38.854;-9.384;2024-03-08T19:41:48;31.27;;;4.43;;
60917;SDS011;46792;38.854;-9.384;2024-03-08T19:43:49;29.60;;;5.30;;
60917;SDS011;46792;38.854;-9.384;2024-03-08T19:45:49;37.80;;;5.18;;
60917;SDS011;46792;38.854;-9.384;2024-03-08T19:47:53;26.75;;;4.30;;
60917;SDS011;46792;38.854;-9.384;2024-03-08T19:49:55;26.10;;;4.43;;
60917;SDS011;46792;38.854;-9.384;2024-03-08T19:51:56;22.65;;;4.88;;
60917;SDS011;46792;38.854;-9.384;2024-03-08T19:53:56;27.13;;;4.18;;
60917;SDS011;46792;38.854;-9.384;2024-03-08T19:55:57;23.13;;;4.20;;
60917;SDS011;46792;38.854;-9.384;2024-03-08T19:57:59;22.58;;;3.90;;
60917;SDS011;46792;38.854;-9.384;2024-03-08T20:00:00;23.98;;;4.30;;
60917;SDS011;46792;38.854;-9.384;2024-03-08T20:02:00;17.42;;;3.97;;
60917;SDS011;46792;38.854;-9.384;2024-03-08T20:04:01;26.27;;;5.70;;
60917;SDS011;46792;38.854;-9.384;2024-03-08T20:06:03;20.92;;;3.83;;
60917;SDS011;46792;38.854;-9.384;2024-03-08T20:08:06;31.90;;;4.25;;
60917;SDS011;46792;38.854;-9.384;2024-03-08T20:10:14;27.30;;;5.30;;
60917;SDS011;46792;38.854;-9.384;2024-03-08T20:12:16;32.92;;;5.97;;
60917;SDS011;46792;38.854;-9.384;2024-03-08T20:14:17;22.65;;;4.13;;
60917;SDS011;46792;38.854;-9.384;2024-03-08T20:16:17;18.08;;;4.35;;
60917;SDS011;46792;38.854;-9.384;2024-03-08T20:18:18;31.15;;;3.70;;
60917;SDS011;46792;38.854;-9.384;2024-03-08T20:20:23;26.27;;;4.75;;
60917;SDS011;46792;38.854;-9.384;2024-03-08T20:22:23;22.75;;;4.30;;
60917;SDS011;46792;38.854;-9.384;2024-03-08T20:24:24;33.40;;;4.55;;
60917;SDS011;46792;38.854;-9.384;2024-03-08T20:26:25;20.60;;;4.00;;
60917;SDS011;46792;38.854;-9.384;2024-03-08T20:28:25;24.25;;;4.82;;
60917;SDS011;46792;38.854;-9.384;2024-03-08T20:30:27;28.98;;;4.03;;
60917;SDS011;46792;38.854;-9.384;2024-03-08T20:32:29;25.50;;;5.47;;
60917;SDS011;46792;38.854;-9.384;2024-03-08T20:34:30;20.45;;;5.72;;
60917;SDS011;46792;38.854;-9.384;2024-03-08T20:36:34;26.17;;;4.35;;
60917;SDS011;46792;38.854;-9.384;2024-03-08T20:38:35;23.02;;;3.47;;
60917;SDS011;46792;38.854;-9.384;2024-03-08T20:40:36;19.50;;;4.10;;
60917;SDS011;46792;38.854;-9.384;2024-03-08T20:42:42;22.60;;;4.07;;
60917;SDS011;46792;38.854;-9.384;2024-03-08T20:44:47;29.35;;;4.00;;
60917;SDS011;46792;38.854;-9.384;2024-03-08T20:46:48;26.42;;;5.35;;
60917;SDS011;46792;38.854;-9.384;2024-03-08T20:48:49;24.27;;;3.88;;
60917;SDS011;46792;38.854;-9.384;2024-03-08T20:50:50;23.80;;;4.18;;
60917;SDS011;46792;38.854;-9.384;2024-03-08T20:52:51;18.70;;;4.13;;
60917;SDS011;46792;38.854;-9.384;2024-03-08T20:54:53;31.90;;;5.13;;
60917;SDS011;46792;38.854;-9.384;2024-03-08T20:56:54;19.40;;;3.83;;
60917;SDS011;46792;38.854;-9.384;2024-03-08T20:58:54;33.80;;;5.13;;
60917;SDS011;46792;38.854;-9.384;2024-03-08T21:00:55;27.08;;;4.18;;
60917;SDS011;46792;38.854;-9.384;2024-03-08T21:02:56;26.33;;;4.65;;
60917;SDS011;46792;38.854;-9.384;2024-03-08T21:04:57;31.90;;;4.85;;
60917;SDS011;46792;38.854;-9.384;2024-03-08T21:06:58;34.65;;;5.35;;
60917;SDS011;46792;38.854;-9.384;2024-03-08T21:08:59;24.48;;;5.32;;
60917;SDS011;46792;38.854;-9.384;2024-03-08T21:11:00;29.25;;;5.75;;
60917;SDS011;46792;38.854;-9.384;2024-03-08T21:13:00;39.55;;;6.38;;
60917;SDS011;46792;38.854;-9.384;2024-03-08T21:15:01;44.92;;;7.18;;
60917;SDS011;46792;38.854;-9.384;2024-03-08T21:17:04;34.20;;;6.00;;
60917;SDS011;46792;38.854;-9.384;2024-03-08T21:19:06;32.08;;;5.80;;
60917;SDS011;46792;38.854;-9.384;2024-03-08T21:21:06;40.55;;;7.47;;
60917;SDS011;46792;38.854;-9.384;2024-03-08T21:23:07;36.97;;;4.80;;
60917;SDS011;46792;38.854;-9.384;2024-03-08T21:25:10;25.83;;;4.47;;
60917;SDS011;46792;38.854;-9.384;2024-03-08T21:27:12;27.65;;;3.78;;
60917;SDS011;46792;38.854;-9.384;2024-03-08T21:29:12;21.58;;;3.83;;
60917;SDS011;46792;38.854;-9.384;2024-03-08T21:31:13;31.40;;;4.80;;
60917;SDS011;46792;38.854;-9.384;2024-03-08T21:33:14;23.55;;;4.55;;
60917;SDS011;46792;38.854;-9.384;2024-03-08T21:35:14;19.33;;;4.38;;
60917;SDS011;46792;38.854;-9.384;2024-03-08T21:37:15;32.63;;;4.57;;
60917;SDS011;46792;38.854;-9.384;2024-03-08T21:39:18;29.23;;;4.32;;
60917;SDS011;46792;38.854;-9.384;2024-03-08T21:41:24;22.17;;;4.25;;
60917;SDS011;46792;38.854;-9.384;2024-03-08T21:43:24;24.92;;;4.25;;
60917;SDS011;46792;38.854;-9.384;2024-03-08T21:45:25;29.13;;;5.55;;
60917;SDS011;46792;38.854;-9.384;2024-03-08T21:47:31;30.40;;;4.10;;
60917;SDS011;46792;38.854;-9.384;2024-03-08T21:49:32;24.60;;;4.78;;
60917;SDS011;46792;38.854;-9.384;2024-03-08T21:51:33;32.40;;;4.85;;
60917;SDS011;46792;38.854;-9.384;2024-03-08T21:53:33;28.27;;;4.50;;
60917;SDS011;46792;38.854;-9.384;2024-03-08T21:55:34;26.73;;;4.47;;
60917;SDS011;46792;38.854;-9.384;2024-03-08T21:57:35;34.78;;;4.97;;
60917;SDS011;46792;38.854;-9.384;2024-03-08T21:59:36;27.23;;;4.97;;
60917;SDS011;46792;38.854;-9.384;2024-03-08T22:01:40;36.72;;;6.75;;
60917;SDS011;46792;38.854;-9.384;2024-03-08T22:03:42;37.00;;;6.05;;
60917;SDS011;46792;38.854;-9.384;2024-03-08T22:05:43;28.65;;;4.63;;
60917;SDS011;46792;38.854;-9.384;2024-03-08T22:07:47;21.77;;;4.37;;
60917;SDS011;46792;38.854;-9.384;2024-03-08T22:09:49;34.65;;;5.53;;
60917;SDS011;46792;38.854;-9.384;2024-03-08T22:11:49;22.15;;;4.53;;
60917;SDS011;46792;38.854;-9.384;2024-03-08T22:13:51;27.48;;;5.28;;
60917;SDS011;46792;38.854;-9.384;2024-03-08T22:15:51;35.50;;;5.55;;
60917;SDS011;46792;38.854;-9.384;2024-03-08T22:17:52;43.47;;;5.90;;
60917;SDS011;46792;38.854;-9.384;2024-03-08T22:19:56;29.60;;;5.38;;
60917;SDS011;46792;38.854;-9.384;2024-03-08T22:22:03;24.98;;;5.18;;
60917;SDS011;46792;38.854;-9.384;2024-03-08T22:24:05;29.55;;;4.57;;
60917;SDS011;46792;38.854;-9.384;2024-03-08T22:26:07;23.52;;;3.50;;
60917;SDS011;46792;38.854;-9.384;2024-03-08T22:28:12;15.18;;;3.45;;
60917;SDS011;46792;38.854;-9.384;2024-03-08T22:30:23;29.17;;;4.90;;
60917;SDS011;46792;38.854;-9.384;2024-03-08T22:32:24;25.95;;;5.32;;
60917;SDS011;46792;38.854;-9.384;2024-03-08T22:34:25;25.58;;;4.60;;
60917;SDS011;46792;38.854;-9.384;2024-03-08T22:36:26;30.23;;;5.05;;
60917;SDS011;46792;38.854;-9.384;2024-03-08T22:38:27;33.70;;;4.97;;
60917;SDS011;46792;38.854;-9.384;2024-03-08T22:40:28;26.70;;;4.72;;
60917;SDS011;46792;38.854;-9.384;2024-03-08T22:42:28;28.40;;;4.28;;
60917;SDS011;46792;38.854;-9.384;2024-03-08T22:44:31;25.45;;;6.47;;
60917;SDS011;46792;38.854;-9.384;2024-03-08T22:46:32;34.67;;;4.60;;
60917;SDS011;46792;38.854;-9.384;2024-03-08T22:48:33;28.30;;;5.10;;
60917;SDS011;46792;38.854;-9.384;2024-03-08T22:50:34;26.83;;;5.22;;
60917;SDS011;46792;38.854;-9.384;2024-03-08T22:52:36;30.85;;;7.25;;
60917;SDS011;46792;38.854;-9.384;2024-03-08T22:54:38;47.20;;;5.90;;
60917;SDS011;46792;38.854;-9.384;2024-03-08T22:56:38;33.83;;;6.05;;
60917;SDS011;46792;38.854;-9.384;2024-03-08T22:58:41;17.27;;;3.47;;